createdAt,value
2017-11-22T00:01:15.361Z,100.00
2017-11-22T00:03:44.178Z,100.00
2017-11-22T00:06:12.751Z,100.00
2017-11-22T00:08:41.256Z,100.00
2017-11-22T00:11:09.717Z,100.00
2017-11-22T00:13:40.109Z,100.00
2017-11-22T00:16:08.629Z,100.00
2017-11-22T00:18:37.125Z,100.00
2017-11-22T00:21:07.232Z,100.00
2017-11-22T00:23:35.609Z,100.00
2017-11-22T00:26:04.111Z,100.00
2017-11-22T00:28:32.489Z,100.00
2017-11-22T00:31:00.878Z,100.00
2017-11-22T00:33:29.262Z,100.00
2017-11-22T00:35:57.695Z,100.00
2017-11-22T00:38:26.879Z,100.00
2017-11-22T00:40:55.234Z,100.00
2017-11-22T00:43:24.426Z,100.00
2017-11-22T00:45:52.801Z,100.00
2017-11-22T00:48:21.204Z,100.00
2017-11-22T00:50:49.632Z,100.00
2017-11-22T00:53:18.110Z,100.00
2017-11-22T00:55:46.496Z,100.00
2017-11-22T00:58:14.899Z,100.00
2017-11-22T01:00:43.409Z,100.00
2017-11-22T01:03:12.243Z,100.00
2017-11-22T01:05:41.548Z,100.00
2017-11-22T01:08:09.915Z,100.00
2017-11-22T01:10:38.309Z,100.00
2017-11-22T01:13:06.829Z,100.00
2017-11-22T01:15:36.263Z,100.00
2017-11-22T01:18:05.403Z,100.00
2017-11-22T01:20:33.797Z,100.00
2017-11-22T01:23:02.168Z,100.00
2017-11-22T01:25:30.609Z,100.00
2017-11-22T01:27:58.993Z,100.00
2017-11-22T01:30:27.439Z,100.00
2017-11-22T01:32:55.981Z,100.00
2017-11-22T01:35:24.653Z,100.00
2017-11-22T01:37:53.257Z,100.00
2017-11-22T01:40:22.163Z,100.00
2017-11-22T01:42:51.331Z,100.00
2017-11-22T01:45:19.981Z,100.00
2017-11-22T01:47:49.007Z,100.00
2017-11-22T01:50:17.488Z,100.00
2017-11-22T01:52:45.892Z,100.00
2017-11-22T01:55:14.379Z,100.00
2017-11-22T01:57:42.741Z,100.00
2017-11-22T02:00:11.239Z,100.00
2017-11-22T02:02:39.826Z,100.00
2017-11-22T02:05:08.200Z,100.00
2017-11-22T02:07:36.593Z,100.00
2017-11-22T02:10:05.436Z,100.00
2017-11-22T02:14:55.347Z,100.00
2017-11-22T02:17:23.783Z,100.00
2017-11-22T02:19:52.221Z,100.00
2017-11-22T02:22:20.654Z,100.00
2017-11-22T02:24:49.056Z,100.00
2017-11-22T02:27:17.424Z,100.00
2017-11-22T02:29:45.820Z,100.00
2017-11-22T02:32:14.340Z,100.00
2017-11-22T02:34:43.523Z,100.00
2017-11-22T02:37:11.917Z,100.00
2017-11-22T02:39:41.207Z,100.00
2017-11-22T02:42:09.572Z,100.00
2017-11-22T02:44:39.166Z,100.00
2017-11-22T02:47:07.558Z,100.00
2017-11-22T02:49:38.973Z,100.00
2017-11-22T02:52:07.549Z,100.00
2017-11-22T02:54:35.995Z,100.00
2017-11-22T02:57:04.469Z,100.00
2017-11-22T02:59:33.838Z,100.00
2017-11-22T03:02:02.917Z,100.00
2017-11-22T03:04:35.305Z,100.00
2017-11-22T03:07:04.553Z,100.00
2017-11-22T03:09:33.431Z,100.00
2017-11-22T03:12:01.969Z,100.00
2017-11-22T03:14:30.448Z,100.00
2017-11-22T03:16:59.082Z,100.00
2017-11-22T03:19:27.453Z,100.00
2017-11-22T03:21:55.820Z,100.00
2017-11-22T03:24:24.174Z,100.00
2017-11-22T03:26:52.511Z,100.00
2017-11-22T03:29:20.862Z,100.00
2017-11-22T03:31:49.201Z,100.00
2017-11-22T03:34:17.579Z,100.00
2017-11-22T03:36:45.924Z,100.00
2017-11-22T03:39:14.264Z,100.00
2017-11-22T03:41:42.648Z,100.00
2017-11-22T03:44:10.989Z,100.00
2017-11-22T03:46:39.379Z,100.00
2017-11-22T03:49:07.730Z,100.00
2017-11-22T03:51:41.710Z,100.00
2017-11-22T03:54:10.070Z,100.00
2017-11-22T03:56:38.416Z,100.00
2017-11-22T03:59:06.756Z,100.00
2017-11-22T04:01:35.897Z,100.00
2017-11-22T04:04:06.731Z,100.00
2017-11-22T04:06:35.105Z,100.00
2017-11-22T04:09:03.456Z,100.00
2017-11-22T04:11:31.807Z,100.00
2017-11-22T04:14:00.182Z,100.00
2017-11-22T04:16:28.531Z,100.00
2017-11-22T04:19:02.508Z,100.00
2017-11-22T04:21:30.848Z,100.00
2017-11-22T04:23:59.272Z,100.00
2017-11-22T04:26:27.743Z,100.00
2017-11-22T04:28:56.096Z,100.00
2017-11-22T04:31:24.474Z,100.00
2017-11-22T04:33:52.828Z,100.00
2017-11-22T04:36:21.191Z,100.00
2017-11-22T04:38:49.531Z,100.00
2017-11-22T04:41:17.901Z,100.00
2017-11-22T04:43:46.322Z,100.00
2017-11-22T04:46:14.796Z,100.00
2017-11-22T04:48:43.168Z,100.00
2017-11-22T04:51:11.522Z,100.00
2017-11-22T04:53:39.860Z,100.00
2017-11-22T04:56:08.214Z,100.00
2017-11-22T04:58:36.584Z,100.00
2017-11-22T05:01:05.068Z,100.00
2017-11-22T05:03:33.447Z,100.00
2017-11-22T05:06:01.804Z,100.00
2017-11-22T05:08:30.160Z,100.00
2017-11-22T05:10:58.555Z,100.00
2017-11-22T05:13:26.925Z,100.00
2017-11-22T05:15:55.272Z,100.00
2017-11-22T05:18:23.754Z,100.00
2017-11-22T05:20:52.154Z,100.00
2017-11-22T05:23:20.502Z,100.00
2017-11-22T05:25:49.567Z,100.00
2017-11-22T05:28:18.013Z,100.00
2017-11-22T05:30:46.365Z,100.00
2017-11-22T05:33:14.752Z,100.00
2017-11-22T05:35:43.097Z,100.00
2017-11-22T05:38:11.443Z,100.00
2017-11-22T05:40:39.779Z,100.00
2017-11-22T05:43:08.130Z,100.00
2017-11-22T05:45:36.516Z,100.00
2017-11-22T05:48:04.864Z,100.00
2017-11-22T05:50:33.207Z,100.00
2017-11-22T05:53:01.560Z,100.00
2017-11-22T05:55:29.917Z,100.00
2017-11-22T05:57:58.288Z,100.00
2017-11-22T06:00:27.433Z,100.00
2017-11-22T06:02:55.775Z,100.00
2017-11-22T06:05:24.136Z,100.00
2017-11-22T06:07:52.488Z,100.00
2017-11-22T06:10:20.978Z,100.00
2017-11-22T06:12:49.328Z,100.00
2017-11-22T06:15:17.681Z,100.00
2017-11-22T06:17:46.040Z,100.00
2017-11-22T06:20:14.396Z,100.00
2017-11-22T06:22:42.783Z,100.00
2017-11-22T06:25:11.141Z,100.00
2017-11-22T06:27:39.496Z,100.00
2017-11-22T06:30:13.469Z,100.00
2017-11-22T06:32:41.823Z,100.00
2017-11-22T06:35:10.195Z,100.00
2017-11-22T06:37:38.558Z,100.00
2017-11-22T06:40:06.909Z,100.00
2017-11-22T06:42:35.269Z,99.90
2017-11-22T06:45:03.659Z,100.00
2017-11-22T06:47:32.028Z,100.00
2017-11-22T06:50:00.401Z,100.00
2017-11-22T06:52:32.647Z,100.00
2017-11-22T06:55:00.992Z,99.57
2017-11-22T06:57:29.374Z,99.80
2017-11-22T06:59:57.721Z,98.99
2017-11-22T07:02:31.728Z,99.65
2017-11-22T07:05:00.072Z,100.00
2017-11-22T07:07:28.430Z,100.00
2017-11-22T07:09:56.776Z,100.00
2017-11-22T07:12:25.158Z,99.86
2017-11-22T07:14:53.500Z,99.71
2017-11-22T07:17:27.353Z,99.42
2017-11-22T07:19:55.707Z,98.73
2017-11-22T07:22:24.044Z,99.18
2017-11-22T07:24:52.429Z,99.21
2017-11-22T07:27:20.766Z,99.14
2017-11-22T07:29:49.148Z,99.16
2017-11-22T07:32:17.488Z,99.04
2017-11-22T07:34:45.866Z,98.82
2017-11-22T07:37:19.839Z,99.17
2017-11-22T07:39:48.313Z,98.89
2017-11-22T07:42:16.652Z,99.01
2017-11-22T07:44:44.991Z,98.55
2017-11-22T07:47:13.369Z,98.27
2017-11-22T07:49:41.709Z,98.24
2017-11-22T07:52:15.107Z,97.99
2017-11-22T07:54:44.188Z,98.12
2017-11-22T07:57:12.776Z,98.34
2017-11-22T07:59:42.537Z,98.20
2017-11-22T08:02:11.434Z,98.60
2017-11-22T08:04:39.992Z,98.01
2017-11-22T08:07:08.557Z,97.46
2017-11-22T08:09:37.357Z,97.33
2017-11-22T08:12:06.104Z,96.83
2017-11-22T08:14:34.942Z,96.85
2017-11-22T08:17:03.462Z,96.93
2017-11-22T08:19:31.939Z,96.39
2017-11-22T08:22:00.379Z,96.75
2017-11-22T08:24:28.824Z,96.25
2017-11-22T08:26:57.261Z,95.74
2017-11-22T08:29:25.678Z,96.01
2017-11-22T08:31:54.133Z,96.42
2017-11-22T08:34:22.547Z,95.54
2017-11-22T08:36:52.205Z,95.86
2017-11-22T08:39:20.738Z,95.14
2017-11-22T08:41:49.956Z,94.54
2017-11-22T08:44:18.295Z,95.28
2017-11-22T08:46:46.670Z,95.28
2017-11-22T08:49:15.040Z,94.36
2017-11-22T08:51:43.400Z,94.90
2017-11-22T08:54:17.302Z,94.50
2017-11-22T08:56:51.291Z,93.72
2017-11-22T08:59:19.799Z,92.80
2017-11-22T09:01:48.160Z,93.71
2017-11-22T09:04:16.513Z,93.08
2017-11-22T09:06:48.531Z,92.25
2017-11-22T09:09:16.884Z,92.35
2017-11-22T09:11:45.264Z,92.71
2017-11-22T09:14:13.624Z,92.09
2017-11-22T09:16:42.100Z,93.08
2017-11-22T09:19:12.359Z,92.60
2017-11-22T09:21:40.704Z,94.20
2017-11-22T09:24:14.023Z,94.41
2017-11-22T09:26:42.369Z,94.02
2017-11-22T09:29:10.744Z,94.48
2017-11-22T09:31:44.692Z,94.33
2017-11-22T09:34:18.673Z,92.58
2017-11-22T09:36:47.015Z,92.32
2017-11-22T09:39:15.363Z,91.28
2017-11-22T09:41:43.723Z,91.35
2017-11-22T09:44:12.080Z,91.92
2017-11-22T09:46:40.464Z,91.46
2017-11-22T09:49:08.813Z,90.60
2017-11-22T09:51:37.169Z,90.69
2017-11-22T09:54:05.508Z,89.44
2017-11-22T09:56:33.875Z,88.54
2017-11-22T09:59:02.275Z,87.23
2017-11-22T10:01:30.649Z,84.91
2017-11-22T10:03:59.003Z,84.90
2017-11-22T10:06:27.364Z,82.47
2017-11-22T10:08:55.715Z,80.65
2017-11-22T10:11:24.108Z,79.17
2017-11-22T10:13:52.490Z,79.85
2017-11-22T10:16:20.831Z,78.82
2017-11-22T10:18:49.189Z,77.99
2017-11-22T10:21:32.508Z,78.20
2017-11-22T10:24:01.684Z,80.34
2017-11-22T10:26:30.038Z,82.76
2017-11-22T10:32:01.432Z,83.10
2017-11-22T10:34:29.916Z,84.60
2017-11-22T10:36:58.286Z,85.36
2017-11-22T10:39:26.704Z,83.67
2017-11-22T10:41:55.094Z,83.65
2017-11-22T10:44:23.445Z,83.64
2017-11-22T10:46:51.861Z,82.61
2017-11-22T10:49:20.223Z,82.10
2017-11-22T10:51:48.578Z,83.37
2017-11-22T10:54:17.198Z,82.57
2017-11-22T10:56:45.570Z,81.32
2017-11-22T10:59:13.943Z,81.58
2017-11-22T11:01:42.308Z,80.92
2017-11-22T11:04:10.657Z,81.10
2017-11-22T11:06:39.045Z,80.99
2017-11-22T11:09:07.406Z,80.25
2017-11-22T11:11:36.411Z,80.11
2017-11-22T11:14:04.908Z,78.49
2017-11-22T11:16:33.270Z,79.71
2017-11-22T11:19:01.616Z,78.34
2017-11-22T11:21:29.965Z,77.44
2017-11-22T11:23:58.340Z,76.43
2017-11-22T11:26:26.678Z,74.33
2017-11-22T11:28:55.045Z,74.75
2017-11-22T11:31:23.388Z,73.75
2017-11-22T11:33:51.735Z,74.81
2017-11-22T11:36:34.669Z,74.06
2017-11-22T11:39:03.056Z,73.48
2017-11-22T11:41:31.449Z,71.46
2017-11-22T11:43:59.792Z,71.55
2017-11-22T11:46:28.136Z,71.00
2017-11-22T11:48:56.523Z,70.50
2017-11-22T11:51:24.860Z,68.55
2017-11-22T11:53:53.251Z,68.87
2017-11-22T11:56:21.608Z,67.42
2017-11-22T11:58:49.975Z,66.33
2017-11-22T12:01:18.340Z,64.92
2017-11-22T12:03:47.487Z,63.27
2017-11-22T12:06:15.868Z,63.55
2017-11-22T12:08:44.213Z,62.82
2017-11-22T12:11:12.552Z,63.77
2017-11-22T12:13:40.888Z,63.15
2017-11-22T12:16:09.231Z,63.40
2017-11-22T12:18:37.596Z,63.57
2017-11-22T12:21:05.970Z,63.14
2017-11-22T12:23:36.234Z,63.68
2017-11-22T12:26:04.569Z,63.73
2017-11-22T12:28:32.918Z,63.01
2017-11-22T12:31:01.263Z,63.05
2017-11-22T12:33:29.658Z,61.41
2017-11-22T12:35:57.995Z,61.47
2017-11-22T12:38:26.365Z,61.31
2017-11-22T12:40:55.085Z,62.11
2017-11-22T12:43:23.642Z,62.29
2017-11-22T12:45:51.987Z,61.21
2017-11-22T12:48:20.410Z,60.26
2017-11-22T12:50:48.752Z,55.51
2017-11-22T12:53:17.162Z,52.80
2017-11-22T12:55:45.537Z,50.60
2017-11-22T12:58:13.876Z,48.82
2017-11-22T13:00:42.268Z,46.57
2017-11-22T13:03:10.627Z,45.98
2017-11-22T13:05:38.963Z,46.50
2017-11-22T13:08:07.348Z,46.77
2017-11-22T13:10:45.046Z,48.58
2017-11-22T13:13:13.403Z,48.53
2017-11-22T13:15:41.760Z,47.56
2017-11-22T13:18:10.112Z,49.28
2017-11-22T13:20:38.458Z,49.57
2017-11-22T13:23:06.793Z,50.23
2017-11-22T13:25:35.129Z,48.36
2017-11-22T13:28:03.468Z,49.78
2017-11-22T13:30:31.851Z,53.77
2017-11-22T13:33:00.190Z,56.09
2017-11-22T13:35:28.528Z,57.16
2017-11-22T13:37:56.880Z,58.96
2017-11-22T13:40:25.224Z,60.82
2017-11-22T13:42:53.596Z,61.67
2017-11-22T13:45:22.725Z,62.18
2017-11-22T13:47:51.075Z,61.09
2017-11-22T13:50:19.450Z,60.57
2017-11-22T13:52:47.799Z,64.04
2017-11-22T13:55:16.192Z,63.88
2017-11-22T13:57:44.536Z,64.60
2017-11-22T14:00:12.896Z,64.85
2017-11-22T14:02:41.254Z,65.82
2017-11-22T14:05:09.615Z,68.03
2017-11-22T14:07:38.027Z,66.71
2017-11-22T14:10:06.371Z,66.57
2017-11-22T14:12:34.718Z,67.03
2017-11-22T14:15:03.069Z,67.94
2017-11-22T14:17:31.424Z,67.56
2017-11-22T14:19:59.808Z,69.37
2017-11-22T14:22:28.188Z,69.86
2017-11-22T14:24:56.528Z,70.19
2017-11-22T14:27:24.879Z,72.46
2017-11-22T14:29:53.230Z,72.70
2017-11-22T14:32:21.593Z,74.42
2017-11-22T14:34:49.936Z,75.41
2017-11-22T14:37:18.283Z,75.63
2017-11-22T14:39:46.661Z,76.33
2017-11-22T14:42:15.010Z,77.03
2017-11-22T14:44:43.456Z,76.54
2017-11-22T14:47:11.809Z,76.85
2017-11-22T14:49:40.201Z,77.36
2017-11-22T14:52:08.565Z,77.75
2017-11-22T14:54:36.927Z,78.23
2017-11-22T14:57:05.300Z,77.87
2017-11-22T14:59:33.644Z,78.62
2017-11-22T15:02:01.979Z,78.72
2017-11-22T15:04:30.325Z,78.91
2017-11-22T15:06:58.696Z,79.85
2017-11-22T15:09:27.075Z,78.24
2017-11-22T15:11:55.413Z,78.41
2017-11-22T15:14:23.756Z,77.96
2017-11-22T15:16:52.105Z,77.87
2017-11-22T15:19:20.443Z,77.71
2017-11-22T15:21:48.812Z,78.45
2017-11-22T15:24:17.151Z,78.62
2017-11-22T15:26:45.494Z,79.08
2017-11-22T15:29:13.837Z,80.57
2017-11-22T15:31:42.177Z,80.04
2017-11-22T15:34:10.534Z,80.17
2017-11-22T15:36:38.878Z,79.08
2017-11-22T15:39:07.216Z,77.04
2017-11-22T15:41:35.595Z,76.96
2017-11-22T15:44:03.934Z,76.21
2017-11-22T15:46:32.282Z,77.58
2017-11-22T15:49:00.620Z,77.50
2017-11-22T15:51:28.967Z,78.43
2017-11-22T15:53:57.334Z,79.11
2017-11-22T15:56:25.689Z,80.20
2017-11-22T15:58:54.037Z,82.44
2017-11-22T16:01:22.383Z,82.71
2017-11-22T16:03:50.737Z,82.88
2017-11-22T16:06:19.113Z,83.30
2017-11-22T16:08:47.456Z,83.75
2017-11-22T16:11:15.808Z,84.62
2017-11-22T16:13:44.143Z,84.83
2017-11-22T16:16:12.488Z,84.93
2017-11-22T16:18:40.857Z,85.53
2017-11-22T16:21:09.204Z,86.53
2017-11-22T16:23:37.555Z,86.84
2017-11-22T16:26:05.896Z,87.21
2017-11-22T16:28:34.228Z,87.59
2017-11-22T16:31:02.629Z,87.59
2017-11-22T16:33:30.970Z,86.95
2017-11-22T16:35:59.314Z,85.14
2017-11-22T16:38:27.656Z,84.55
2017-11-22T16:40:55.995Z,85.97
2017-11-22T16:43:24.387Z,85.59
2017-11-22T16:45:52.717Z,87.57
2017-11-22T16:48:21.057Z,88.34
2017-11-22T16:50:49.406Z,88.43
2017-11-22T16:53:17.764Z,87.96
2017-11-22T16:55:46.157Z,87.24
2017-11-22T16:58:14.512Z,86.42
2017-11-22T17:00:42.850Z,87.03
2017-11-22T17:03:11.195Z,85.61
2017-11-22T17:05:39.536Z,86.37
2017-11-22T17:08:07.910Z,86.17
2017-11-22T17:10:36.260Z,85.65
2017-11-22T17:13:04.596Z,85.45
2017-11-22T17:15:32.928Z,85.02
2017-11-22T17:18:01.287Z,83.84
2017-11-22T17:20:29.673Z,82.56
2017-11-22T17:22:58.012Z,83.21
2017-11-22T17:25:26.388Z,81.16
2017-11-22T17:27:54.735Z,81.28
2017-11-22T17:30:23.076Z,81.05
2017-11-22T17:32:51.579Z,81.65
2017-11-22T17:35:19.915Z,81.95
2017-11-22T17:37:48.247Z,81.86
2017-11-22T17:40:16.592Z,81.57
2017-11-22T17:42:44.929Z,80.74
2017-11-22T17:45:13.316Z,79.35
2017-11-22T17:47:41.658Z,78.62
2017-11-22T17:50:10.001Z,76.84
2017-11-22T17:52:38.333Z,75.52
2017-11-22T17:55:06.675Z,75.61
2017-11-22T17:57:35.060Z,74.77
2017-11-22T18:00:03.397Z,76.14
2017-11-22T18:02:31.754Z,76.07
2017-11-22T18:05:00.169Z,76.61
2017-11-22T18:07:28.516Z,77.68
2017-11-22T18:09:56.910Z,78.40
2017-11-22T18:12:26.598Z,79.02
2017-11-22T18:14:54.983Z,80.25
2017-11-22T18:17:23.329Z,81.53
2017-11-22T18:19:51.659Z,81.81
2017-11-22T18:22:20.140Z,82.86
2017-11-22T18:24:48.490Z,83.26
2017-11-22T18:27:16.827Z,83.72
2017-11-22T18:29:45.168Z,83.03
2017-11-22T18:32:13.525Z,84.25
2017-11-22T18:34:41.887Z,84.68
2017-11-22T18:37:10.231Z,84.66
2017-11-22T18:39:38.573Z,85.24
2017-11-22T18:42:06.913Z,85.02
2017-11-22T18:44:35.259Z,85.29
2017-11-22T18:47:03.651Z,84.72
2017-11-22T18:49:32.002Z,84.89
2017-11-22T18:52:00.337Z,84.30
2017-11-22T18:54:28.688Z,83.71
2017-11-22T18:56:57.069Z,82.94
2017-11-22T18:59:25.446Z,82.14
2017-11-22T19:01:53.786Z,78.41
2017-11-22T19:04:22.119Z,76.78
2017-11-22T19:06:50.459Z,77.04
2017-11-22T19:09:18.851Z,77.04
2017-11-22T19:11:47.222Z,76.49
2017-11-22T19:14:15.552Z,75.59
2017-11-22T19:16:43.895Z,74.91
2017-11-22T19:19:12.230Z,73.56
2017-11-22T19:21:40.587Z,73.87
2017-11-22T19:24:08.975Z,73.03
2017-11-22T19:26:37.318Z,73.13
2017-11-22T19:29:05.653Z,73.56
2017-11-22T19:31:33.989Z,73.63
2017-11-22T19:34:02.325Z,74.91
2017-11-22T19:36:30.695Z,74.43
2017-11-22T19:38:59.038Z,73.96
2017-11-22T19:41:27.369Z,74.25
2017-11-22T19:43:55.700Z,73.98
2017-11-22T19:46:24.036Z,73.91
2017-11-22T19:48:52.577Z,73.97
2017-11-22T19:51:20.931Z,73.51
2017-11-22T19:53:49.257Z,74.67
2017-11-22T19:56:17.586Z,74.83
2017-11-22T19:58:45.943Z,75.32
2017-11-22T20:01:14.408Z,74.74
2017-11-22T20:03:42.744Z,74.17
2017-11-22T20:06:11.113Z,73.93
2017-11-22T20:08:42.365Z,73.85
2017-11-22T20:11:10.735Z,73.61
2017-11-22T20:13:39.113Z,73.64
2017-11-22T20:16:07.447Z,73.21
2017-11-22T20:18:35.796Z,72.55
2017-11-22T20:21:04.139Z,73.94
2017-11-22T20:23:32.480Z,73.99
2017-11-22T20:26:00.895Z,71.85
2017-11-22T20:28:29.236Z,71.72
2017-11-22T20:30:57.592Z,69.52
2017-11-22T20:33:25.943Z,69.80
2017-11-22T20:35:54.298Z,69.32
2017-11-22T20:38:22.659Z,67.93
2017-11-22T20:40:51.001Z,67.06
2017-11-22T20:43:19.337Z,67.39
2017-11-22T20:45:47.671Z,64.85
2017-11-22T20:48:16.007Z,64.39
2017-11-22T20:50:44.449Z,64.30
2017-11-22T20:53:12.813Z,64.44
2017-11-22T20:55:41.164Z,64.32
2017-11-22T20:58:09.492Z,63.76
2017-11-22T21:00:37.836Z,64.82
2017-11-22T21:03:06.342Z,66.06
2017-11-22T21:05:34.672Z,65.81
2017-11-22T21:08:02.999Z,65.31
2017-11-22T21:10:31.345Z,66.18
2017-11-22T21:12:59.683Z,66.08
2017-11-22T21:15:28.052Z,66.55
2017-11-22T21:17:56.397Z,66.69
2017-11-22T21:20:24.780Z,66.75
2017-11-22T21:22:53.119Z,66.98
2017-11-22T21:25:21.451Z,66.76
2017-11-22T21:27:49.793Z,67.06
2017-11-22T21:30:18.131Z,65.75
2017-11-22T21:32:46.500Z,66.03
2017-11-22T21:35:14.844Z,66.20
2017-11-22T21:37:43.172Z,68.80
2017-11-22T21:40:11.514Z,68.02
2017-11-22T21:42:39.848Z,67.94
2017-11-22T21:45:08.260Z,67.58
2017-11-22T21:47:36.599Z,69.28
2017-11-22T21:50:04.932Z,69.14
2017-11-22T21:52:33.265Z,69.83
2017-11-22T21:55:01.627Z,69.72
2017-11-22T21:57:29.980Z,69.33
2017-11-22T21:59:58.318Z,68.34
2017-11-22T22:02:26.648Z,68.21
2017-11-22T22:04:54.983Z,68.74
2017-11-22T22:07:23.310Z,68.23
2017-11-22T22:09:51.671Z,68.80
2017-11-22T22:12:20.020Z,68.59
2017-11-22T22:14:48.367Z,68.52
2017-11-22T22:17:16.705Z,68.47
2017-11-22T22:19:45.062Z,68.68
2017-11-22T22:22:13.424Z,69.04
2017-11-22T22:24:41.757Z,69.18
2017-11-22T22:27:10.095Z,68.91
2017-11-22T22:29:38.418Z,69.84
2017-11-22T22:32:06.778Z,70.03
2017-11-22T22:34:35.247Z,69.74
2017-11-22T22:37:03.581Z,70.27
2017-11-22T22:39:31.912Z,70.27
2017-11-22T22:42:00.262Z,69.31
2017-11-22T22:44:28.593Z,68.84
2017-11-22T22:46:56.955Z,68.30
2017-11-22T22:49:25.292Z,68.47
2017-11-22T22:51:53.639Z,68.19
2017-11-22T22:54:22.026Z,68.43
2017-11-22T22:56:50.417Z,68.62
2017-11-22T22:59:18.781Z,69.21
2017-11-22T23:01:47.121Z,68.66
2017-11-22T23:04:15.454Z,67.74
2017-11-22T23:06:43.803Z,68.43
2017-11-22T23:09:12.145Z,68.74
2017-11-22T23:11:40.611Z,68.58
2017-11-22T23:14:08.967Z,68.15
2017-11-22T23:16:37.308Z,68.24
2017-11-22T23:19:05.661Z,68.67
2017-11-22T23:21:33.993Z,69.13
2017-11-22T23:24:02.443Z,68.48
2017-11-22T23:26:30.781Z,69.47
2017-11-22T23:28:59.120Z,69.57
2017-11-22T23:31:27.456Z,69.24
2017-11-22T23:33:55.816Z,69.34
2017-11-22T23:36:24.153Z,69.54
2017-11-22T23:38:52.480Z,68.62
2017-11-22T23:41:20.825Z,67.90
2017-11-22T23:43:49.156Z,67.86
2017-11-22T23:46:17.511Z,67.91
2017-11-22T23:48:45.835Z,68.04
2017-11-22T23:51:14.172Z,67.24
2017-11-22T23:53:42.500Z,66.99
2017-11-22T23:56:10.823Z,66.34
2017-11-22T23:58:39.187Z,66.60
